createdAt,value
2017-05-03T00:00:06.697Z,2.60
2017-05-03T00:02:36.031Z,2.44
2017-05-03T00:05:05.474Z,2.06
2017-05-03T00:07:34.813Z,2.24
2017-05-03T00:10:04.183Z,2.14
2017-05-03T00:12:33.513Z,2.42
2017-05-03T00:15:02.845Z,2.34
2017-05-03T00:17:32.264Z,2.62
2017-05-03T00:20:01.595Z,2.54
2017-05-03T00:22:30.946Z,2.80
2017-05-03T00:25:00.276Z,2.14
2017-05-03T00:27:29.610Z,1.94
2017-05-03T00:29:59.043Z,2.66
2017-05-03T00:32:28.371Z,2.42
2017-05-03T00:34:57.704Z,2.38
2017-05-03T00:37:27.036Z,2.18
2017-05-03T00:39:56.379Z,1.98
2017-05-03T00:42:25.819Z,2.22
2017-05-03T00:44:55.155Z,2.42
2017-05-03T00:47:24.491Z,2.20
2017-05-03T00:49:53.831Z,2.24
2017-05-03T00:52:23.832Z,2.42
2017-05-03T00:54:52.585Z,2.20
2017-05-03T00:57:22.587Z,2.26
2017-05-03T00:59:51.298Z,2.30
2017-05-03T01:02:20.654Z,2.20
2017-05-03T01:04:49.988Z,2.40
2017-05-03T01:07:19.405Z,1.94
2017-05-03T01:09:49.411Z,2.80
2017-05-03T01:12:18.072Z,2.60
2017-05-03T01:14:47.407Z,2.20
2017-05-03T01:17:16.741Z,2.06
2017-05-03T01:19:46.142Z,2.06
2017-05-03T01:22:15.481Z,2.10
2017-05-03T01:24:44.813Z,2.24
2017-05-03T01:27:14.270Z,2.00
2017-05-03T01:29:43.646Z,2.24
2017-05-03T01:32:12.975Z,2.34
2017-05-03T01:34:42.347Z,1.72
2017-05-03T01:37:12.449Z,2.72
2017-05-03T01:39:41.111Z,2.60
2017-05-03T01:42:10.453Z,2.20
2017-05-03T01:44:39.785Z,1.80
2017-05-03T01:47:09.118Z,2.08
2017-05-03T01:49:38.539Z,2.10
2017-05-03T01:52:07.878Z,2.22
2017-05-03T01:54:37.233Z,1.82
2017-05-03T01:57:07.334Z,2.28
2017-05-03T01:59:36.702Z,2.24
2017-05-03T02:02:06.164Z,2.04
2017-05-03T02:04:36.270Z,2.16
2017-05-03T02:07:05.612Z,1.66
2017-05-03T02:09:34.990Z,2.24
2017-05-03T02:12:05.091Z,2.34
2017-05-03T02:14:34.610Z,1.70
2017-05-03T02:17:04.712Z,2.26
2017-05-03T02:19:34.134Z,2.36
2017-05-03T02:22:04.233Z,1.80
2017-05-03T02:24:34.555Z,1.82
2017-05-03T02:27:04.563Z,2.88
2017-05-03T02:29:33.225Z,2.40
2017-05-03T02:32:02.562Z,2.30
2017-05-03T02:34:31.989Z,2.48
2017-05-03T02:37:02.093Z,2.28
2017-05-03T02:39:31.424Z,2.10
2017-05-03T02:42:00.792Z,2.40
2017-05-03T02:44:30.127Z,2.18
2017-05-03T02:46:59.617Z,2.10
2017-05-03T02:49:28.949Z,2.24
2017-05-03T02:51:58.362Z,2.98
2017-05-03T02:54:27.695Z,2.10
2017-05-03T02:56:57.117Z,2.00
2017-05-03T02:59:26.443Z,2.48
2017-05-03T03:01:55.776Z,2.32
2017-05-03T03:04:25.131Z,1.96
2017-05-03T03:06:54.458Z,1.98
2017-05-03T03:09:24.642Z,1.82
2017-05-03T03:11:53.975Z,1.92
2017-05-03T03:14:23.307Z,2.02
2017-05-03T03:16:52.645Z,2.02
2017-05-03T03:19:22.652Z,1.68
2017-05-03T03:21:51.406Z,2.00
2017-05-03T03:24:20.735Z,2.54
2017-05-03T03:26:50.069Z,1.82
2017-05-03T03:29:19.405Z,2.20
2017-05-03T03:31:48.744Z,1.58
2017-05-03T03:34:18.167Z,2.04
2017-05-03T03:36:47.506Z,2.80
2017-05-03T03:39:16.840Z,2.96
2017-05-03T03:41:46.171Z,1.80
2017-05-03T03:44:15.505Z,1.72
2017-05-03T03:46:44.952Z,2.08
2017-05-03T03:49:14.297Z,1.80
2017-05-03T03:51:43.667Z,1.86
2017-05-03T03:54:13.001Z,2.06
2017-05-03T03:56:43.792Z,2.70
2017-05-03T03:59:13.347Z,2.24
2017-05-03T04:01:43.448Z,2.32
2017-05-03T04:04:12.794Z,2.20
2017-05-03T04:06:42.127Z,2.02
2017-05-03T04:09:11.463Z,2.38
2017-05-03T04:11:40.990Z,2.00
2017-05-03T04:14:10.324Z,1.54
2017-05-03T04:16:39.704Z,1.92
2017-05-03T04:19:10.846Z,2.02
2017-05-03T04:21:40.858Z,1.70
2017-05-03T04:24:09.600Z,1.46
2017-05-03T04:26:38.934Z,1.78
2017-05-03T04:29:08.267Z,1.70
2017-05-03T04:31:37.598Z,1.76
2017-05-03T04:34:06.934Z,1.50
2017-05-03T04:36:36.367Z,1.56
2017-05-03T04:39:05.695Z,1.54
2017-05-03T04:41:35.081Z,1.66
2017-05-03T04:44:04.408Z,1.46
2017-05-03T04:46:33.767Z,1.60
2017-05-03T04:49:03.886Z,1.50
2017-05-03T04:51:32.538Z,1.36
2017-05-03T04:54:01.873Z,1.56
2017-05-03T04:56:31.219Z,1.50
2017-05-03T04:59:00.554Z,1.50
2017-05-03T05:01:29.894Z,1.48
2017-05-03T05:03:59.233Z,1.50
2017-05-03T05:06:28.570Z,1.30
2017-05-03T05:08:57.975Z,1.60
2017-05-03T05:11:27.322Z,1.54
2017-05-03T05:13:56.643Z,1.82
2017-05-03T05:16:25.982Z,1.82
2017-05-03T05:18:56.114Z,1.70
2017-05-03T05:21:25.562Z,1.72
2017-05-03T05:23:55.566Z,2.08
2017-05-03T05:26:24.896Z,1.86
2017-05-03T05:28:53.568Z,1.88
2017-05-03T05:31:22.935Z,1.50
2017-05-03T05:33:52.367Z,1.70
2017-05-03T05:36:21.707Z,1.82
2017-05-03T05:38:51.044Z,1.70
2017-05-03T05:41:20.377Z,1.84
2017-05-03T05:43:49.831Z,1.70
2017-05-03T05:46:19.206Z,1.88
2017-05-03T05:48:48.540Z,1.70
2017-05-03T05:51:17.923Z,2.12
2017-05-03T05:53:47.254Z,1.68
2017-05-03T05:56:16.668Z,2.50
2017-05-03T05:58:46.036Z,2.24
2017-05-03T06:01:15.466Z,2.00
2017-05-03T06:03:44.805Z,1.80
2017-05-03T06:06:14.147Z,1.78
2017-05-03T06:08:43.473Z,1.58
2017-05-03T06:11:12.812Z,1.82
2017-05-03T06:13:42.264Z,1.62
2017-05-03T06:16:13.036Z,1.74
2017-05-03T06:18:41.702Z,1.78
2017-05-03T06:21:11.117Z,2.02
2017-05-03T06:23:41.127Z,2.16
2017-05-03T06:26:09.862Z,1.78
2017-05-03T06:28:39.195Z,1.84
2017-05-03T06:31:08.526Z,1.68
2017-05-03T06:33:37.862Z,1.82
2017-05-03T06:36:07.197Z,1.86
2017-05-03T06:38:36.610Z,1.60
2017-05-03T06:41:05.945Z,1.98
2017-05-03T06:43:35.278Z,1.76
2017-05-03T06:46:04.610Z,1.92
2017-05-03T06:48:35.384Z,2.00
2017-05-03T06:51:04.051Z,2.00
2017-05-03T06:53:33.419Z,2.94
2017-05-03T06:56:02.796Z,1.90
2017-05-03T06:58:32.128Z,1.96
2017-05-03T07:01:01.463Z,1.70
2017-05-03T07:03:30.803Z,2.16
2017-05-03T07:06:00.134Z,1.80
2017-05-03T07:08:29.548Z,1.62
2017-05-03T07:10:58.876Z,1.82
2017-05-03T07:13:28.207Z,1.54
2017-05-03T07:15:57.543Z,1.94
2017-05-03T07:18:26.883Z,1.98
2017-05-03T07:20:56.374Z,2.22
2017-05-03T07:23:25.710Z,1.70
2017-05-03T07:25:55.043Z,1.86
2017-05-03T07:28:24.410Z,2.26
2017-05-03T07:30:53.749Z,2.20
2017-05-03T07:33:23.181Z,1.80
2017-05-03T07:35:52.521Z,1.58
2017-05-03T07:38:21.855Z,2.60
2017-05-03T07:40:51.189Z,2.04
2017-05-03T07:43:20.530Z,2.20
2017-05-03T07:45:49.930Z,2.00
2017-05-03T07:48:19.271Z,2.04
2017-05-03T07:50:48.678Z,1.56
2017-05-03T07:53:18.023Z,1.94
2017-05-03T07:55:47.364Z,1.70
2017-05-03T07:58:16.698Z,1.74
2017-05-03T08:00:46.049Z,2.42
2017-05-03T08:03:16.182Z,2.38
2017-05-03T08:05:44.854Z,3.28
2017-05-03T08:08:14.196Z,2.04
2017-05-03T08:10:44.203Z,3.02
2017-05-03T08:13:12.869Z,1.82
2017-05-03T08:15:42.290Z,1.74
2017-05-03T08:18:12.303Z,1.88
2017-05-03T08:20:40.963Z,2.18
2017-05-03T08:23:10.299Z,1.70
2017-05-03T08:25:39.642Z,1.90
2017-05-03T08:28:09.038Z,1.78
2017-05-03T08:30:38.371Z,1.88
2017-05-03T08:33:07.780Z,1.70
2017-05-03T08:35:37.122Z,2.12
2017-05-03T08:38:06.450Z,1.74
2017-05-03T08:40:35.782Z,2.10
2017-05-03T08:43:05.118Z,2.30
2017-05-03T08:45:35.345Z,2.40
2017-05-03T08:48:06.144Z,1.80
2017-05-03T08:50:35.790Z,1.90
2017-05-03T08:53:06.572Z,2.18
2017-05-03T08:55:36.858Z,2.22
2017-05-03T08:58:06.973Z,2.18
2017-05-03T09:00:37.140Z,1.84
2017-05-03T09:03:06.476Z,2.88
2017-05-03T09:05:35.815Z,2.04
2017-05-03T09:08:05.156Z,1.92
2017-05-03T09:10:34.497Z,1.86
2017-05-03T09:13:03.901Z,2.34
2017-05-03T09:15:33.236Z,2.24
2017-05-03T09:18:03.279Z,2.22
2017-05-03T09:20:31.949Z,2.74
2017-05-03T09:23:01.291Z,2.44
2017-05-03T09:25:31.394Z,1.96
2017-05-03T09:28:00.828Z,2.32
2017-05-03T09:30:30.230Z,2.26
2017-05-03T09:32:59.566Z,2.46
2017-05-03T09:35:28.898Z,2.72
2017-05-03T09:37:58.239Z,2.34
2017-05-03T09:40:27.576Z,2.26
2017-05-03T09:42:57.002Z,2.20
2017-05-03T09:45:26.340Z,2.16
2017-05-03T09:47:55.710Z,2.36
2017-05-03T09:50:25.043Z,2.50
2017-05-03T09:52:54.469Z,2.16
2017-05-03T09:55:24.575Z,2.18
2017-05-03T09:57:53.911Z,2.16
2017-05-03T10:00:23.237Z,2.44
2017-05-03T10:02:53.240Z,2.32
2017-05-03T10:05:21.997Z,2.18
2017-05-03T10:07:51.337Z,2.46
2017-05-03T10:10:20.670Z,2.68
2017-05-03T10:12:50.082Z,2.52
2017-05-03T10:15:19.444Z,2.90
2017-05-03T10:17:48.871Z,2.54
2017-05-03T10:20:18.210Z,3.84
2017-05-03T10:22:47.546Z,2.78
2017-05-03T10:25:17.556Z,2.94
2017-05-03T10:27:46.218Z,2.98
2017-05-03T10:30:15.683Z,3.12
2017-05-03T10:32:45.907Z,2.80
2017-05-03T10:35:15.318Z,2.44
2017-05-03T10:40:21.526Z,2.54
2017-05-03T10:42:50.860Z,2.62
2017-05-03T10:45:20.201Z,2.94
2017-05-03T10:47:49.550Z,3.08
2017-05-03T10:50:18.880Z,2.98
2017-05-03T10:52:48.299Z,3.12
2017-05-03T10:55:17.630Z,3.54
2017-05-03T10:57:46.967Z,3.00
2017-05-03T11:00:16.304Z,3.58
2017-05-03T11:02:45.638Z,4.02
2017-05-03T11:05:14.970Z,3.02
2017-05-03T11:07:44.313Z,2.86
2017-05-03T11:10:13.748Z,3.78
2017-05-03T11:12:43.893Z,3.18
2017-05-03T11:15:13.298Z,3.48
2017-05-03T11:17:42.640Z,3.00
2017-05-03T11:20:11.981Z,3.52
2017-05-03T11:22:42.081Z,3.28
2017-05-03T11:25:11.418Z,3.32
2017-05-03T11:27:40.833Z,3.78
2017-05-03T11:30:10.177Z,2.92
2017-05-03T11:32:39.511Z,4.08
2017-05-03T11:35:08.845Z,3.80
2017-05-03T11:37:38.182Z,4.04
2017-05-03T11:40:08.293Z,3.56
2017-05-03T11:42:36.965Z,4.00
2017-05-03T11:45:06.295Z,5.00
2017-05-03T11:47:35.629Z,3.96
2017-05-03T11:50:04.980Z,3.62
2017-05-03T11:52:34.407Z,3.40
2017-05-03T11:55:03.732Z,2.90
2017-05-03T11:57:33.070Z,3.52
2017-05-03T12:00:02.408Z,3.22
2017-05-03T12:02:31.818Z,3.44
2017-05-03T12:05:01.222Z,3.40
2017-05-03T12:07:31.261Z,3.04
2017-05-03T12:09:59.926Z,3.36
2017-05-03T12:12:29.259Z,3.72
2017-05-03T12:14:58.597Z,3.36
2017-05-03T12:17:28.052Z,3.10
2017-05-03T12:19:57.389Z,4.02
2017-05-03T12:22:26.727Z,4.02
2017-05-03T12:24:56.061Z,3.48
2017-05-03T12:27:25.393Z,3.96
2017-05-03T12:29:54.871Z,3.28
2017-05-03T12:32:24.215Z,3.54
2017-05-03T12:34:53.550Z,4.52
2017-05-03T12:37:22.883Z,4.08
2017-05-03T12:39:52.219Z,4.72
2017-05-03T12:42:21.618Z,4.02
2017-05-03T12:44:51.620Z,4.10
2017-05-03T12:47:20.281Z,3.84
2017-05-03T12:49:49.764Z,4.38
2017-05-03T12:52:19.114Z,3.94
2017-05-03T12:54:48.451Z,3.74
2017-05-03T12:57:17.804Z,4.50
2017-05-03T12:59:47.143Z,4.46
2017-05-03T13:02:16.577Z,4.06
2017-05-03T13:04:45.910Z,4.28
2017-05-03T13:07:15.917Z,4.72
2017-05-03T13:09:44.587Z,4.76
2017-05-03T13:12:14.587Z,3.60
2017-05-03T13:14:43.330Z,4.14
2017-05-03T13:17:13.059Z,4.12
2017-05-03T13:19:42.390Z,4.14
2017-05-03T13:22:11.727Z,3.82
2017-05-03T13:24:41.063Z,4.00
2017-05-03T13:27:10.478Z,4.56
2017-05-03T13:29:39.850Z,5.38
2017-05-03T13:32:09.196Z,5.16
2017-05-03T13:34:38.530Z,4.00
2017-05-03T13:37:08.634Z,4.54
2017-05-03T13:39:38.042Z,3.84
2017-05-03T13:42:08.152Z,3.92
2017-05-03T13:44:37.488Z,4.66
2017-05-03T13:47:07.597Z,4.68
2017-05-03T13:49:38.370Z,4.80
2017-05-03T13:52:07.242Z,4.92
2017-05-03T13:54:36.579Z,4.50
2017-05-03T13:57:05.930Z,4.56
2017-05-03T13:59:35.266Z,4.68
2017-05-03T14:02:04.607Z,4.52
2017-05-03T14:04:34.026Z,5.64
2017-05-03T14:07:04.129Z,4.22
2017-05-03T14:09:33.462Z,4.30
2017-05-03T14:12:03.563Z,3.94
2017-05-03T14:14:32.904Z,4.02
2017-05-03T14:17:02.365Z,3.80
2017-05-03T14:19:31.704Z,3.96
2017-05-03T14:22:01.046Z,3.98
2017-05-03T14:24:31.042Z,3.40
2017-05-03T14:26:59.710Z,3.46
2017-05-03T14:29:29.168Z,3.62
2017-05-03T14:31:58.501Z,3.68
2017-05-03T14:34:27.854Z,2.90
2017-05-03T14:36:57.190Z,3.68
2017-05-03T14:39:26.527Z,3.54
2017-05-03T14:41:55.945Z,4.30
2017-05-03T14:44:25.273Z,3.68
2017-05-03T14:46:54.608Z,3.40
2017-05-03T14:49:23.947Z,3.40
2017-05-03T14:51:53.362Z,4.06
2017-05-03T14:54:22.816Z,3.78
2017-05-03T14:56:52.155Z,3.76
2017-05-03T14:59:22.162Z,3.80
2017-05-03T15:01:51.500Z,3.48
2017-05-03T15:04:20.174Z,3.80
2017-05-03T15:06:49.593Z,3.66
2017-05-03T15:09:18.922Z,3.30
2017-05-03T15:11:48.258Z,3.62
2017-05-03T15:14:17.589Z,3.56
2017-05-03T15:16:46.931Z,3.30
2017-05-03T15:19:16.400Z,3.54
2017-05-03T15:21:45.733Z,4.72
2017-05-03T15:24:15.093Z,4.34
2017-05-03T15:26:45.123Z,3.54
2017-05-03T15:29:13.789Z,3.26
2017-05-03T15:31:43.209Z,3.68
2017-05-03T15:34:13.216Z,3.36
2017-05-03T15:36:41.878Z,3.60
2017-05-03T15:39:11.210Z,4.00
2017-05-03T15:41:40.545Z,3.62
2017-05-03T15:44:09.978Z,3.62
2017-05-03T15:46:39.314Z,3.94
2017-05-03T15:49:08.652Z,3.20
2017-05-03T15:51:37.993Z,3.40
2017-05-03T15:54:07.330Z,3.42
2017-05-03T15:56:36.772Z,3.16
2017-05-03T15:59:06.103Z,3.48
2017-05-03T16:01:35.437Z,3.30
2017-05-03T16:04:04.773Z,3.56
2017-05-03T16:06:34.108Z,3.62
2017-05-03T16:09:03.530Z,3.36
2017-05-03T16:11:32.870Z,3.82
2017-05-03T16:14:02.218Z,3.28
2017-05-03T16:16:31.562Z,3.76
2017-05-03T16:19:00.890Z,3.52
2017-05-03T16:21:30.315Z,3.72
2017-05-03T16:24:00.320Z,3.20
2017-05-03T16:26:28.994Z,3.48
2017-05-03T16:28:58.340Z,3.86
2017-05-03T16:31:28.449Z,3.08
2017-05-03T16:33:57.856Z,3.82
2017-05-03T16:36:27.192Z,3.90
2017-05-03T16:38:56.566Z,3.76
2017-05-03T16:41:25.917Z,3.28
2017-05-03T16:43:55.279Z,3.64
2017-05-03T16:46:24.620Z,4.10
2017-05-03T16:48:53.967Z,3.62
2017-05-03T16:51:23.379Z,3.98
2017-05-03T16:53:52.727Z,3.92
2017-05-03T16:56:22.060Z,3.80
2017-05-03T16:58:51.390Z,3.24
2017-05-03T17:01:21.409Z,3.70
2017-05-03T17:03:50.200Z,3.40
2017-05-03T17:06:19.531Z,3.70
2017-05-03T17:08:48.866Z,3.24
2017-05-03T17:11:18.209Z,3.20
2017-05-03T17:13:47.563Z,3.82
2017-05-03T17:16:16.975Z,3.40
2017-05-03T17:18:47.069Z,3.40
2017-05-03T17:21:16.481Z,3.04
2017-05-03T17:23:46.495Z,3.16
2017-05-03T17:26:15.158Z,2.78
2017-05-03T17:28:44.492Z,2.88
2017-05-03T17:31:14.499Z,2.62
2017-05-03T17:33:43.252Z,2.76
2017-05-03T17:36:12.599Z,2.20
2017-05-03T17:38:41.937Z,3.00
2017-05-03T17:41:11.266Z,2.70
2017-05-03T17:43:40.604Z,2.70
2017-05-03T17:46:11.457Z,2.40
2017-05-03T17:48:40.222Z,2.24
2017-05-03T17:51:09.550Z,2.56
2017-05-03T17:53:38.887Z,2.80
2017-05-03T17:56:08.226Z,2.40
2017-05-03T17:58:37.572Z,2.68
2017-05-03T18:01:06.985Z,2.42
2017-05-03T18:03:36.991Z,2.80
2017-05-03T18:06:05.664Z,2.72
2017-05-03T18:08:34.997Z,2.92
2017-05-03T18:11:04.336Z,3.18
2017-05-03T18:13:34.485Z,2.60
2017-05-03T18:16:03.150Z,2.80
2017-05-03T18:18:33.324Z,2.64
2017-05-03T18:21:02.660Z,2.80
2017-05-03T18:23:31.994Z,2.58
2017-05-03T18:26:02.769Z,2.38
2017-05-03T18:28:31.472Z,3.02
2017-05-03T18:31:01.556Z,2.10
2017-05-03T18:33:30.239Z,2.38
2017-05-03T18:35:59.578Z,3.06
2017-05-03T18:38:28.925Z,2.60
2017-05-03T18:40:58.254Z,2.60
2017-05-03T18:43:27.657Z,2.60
2017-05-03T18:45:57.003Z,2.64
2017-05-03T18:48:26.393Z,2.80
2017-05-03T18:50:55.728Z,2.64
2017-05-03T18:53:25.063Z,2.82
2017-05-03T18:55:54.553Z,2.56
2017-05-03T18:58:23.896Z,2.60
2017-05-03T19:00:53.239Z,2.94
2017-05-03T19:03:22.578Z,2.50
2017-05-03T19:05:51.911Z,2.42
2017-05-03T19:08:22.018Z,2.72
2017-05-03T19:10:51.450Z,2.78
2017-05-03T19:13:20.784Z,2.28
2017-05-03T19:15:50.122Z,2.64
2017-05-03T19:18:19.475Z,2.64
2017-05-03T19:20:48.883Z,2.74
2017-05-03T19:23:18.295Z,2.72
2017-05-03T19:25:47.639Z,2.62
2017-05-03T19:28:17.651Z,2.76
2017-05-03T19:30:47.762Z,2.64
2017-05-03T19:33:16.423Z,2.40
2017-05-03T19:35:45.829Z,2.46
2017-05-03T19:38:15.272Z,2.70
2017-05-03T19:40:44.617Z,2.88
2017-05-03T19:43:14.625Z,2.52
2017-05-03T19:45:43.291Z,2.22
2017-05-03T19:48:12.712Z,2.30
2017-05-03T19:50:42.050Z,2.48
2017-05-03T19:53:11.395Z,2.80
2017-05-03T19:55:40.730Z,2.40
2017-05-03T19:58:10.069Z,2.58
2017-05-03T20:00:39.471Z,2.48
2017-05-03T20:03:08.828Z,2.60
2017-05-03T20:05:38.165Z,1.84
2017-05-03T20:08:07.504Z,2.38
2017-05-03T20:10:36.847Z,2.40
2017-05-03T20:13:06.268Z,2.26
2017-05-03T20:15:35.607Z,1.92
2017-05-03T20:18:04.943Z,1.82
2017-05-03T20:20:34.282Z,2.60
2017-05-03T20:23:03.620Z,2.22
2017-05-03T20:25:32.951Z,2.04
2017-05-03T20:28:03.733Z,2.18
2017-05-03T20:30:32.483Z,1.90
2017-05-03T20:33:02.083Z,2.00
2017-05-03T20:35:31.416Z,2.10
2017-05-03T20:38:00.756Z,2.14
2017-05-03T20:40:30.091Z,2.02
2017-05-03T20:43:00.284Z,1.82
2017-05-03T20:45:29.622Z,1.90
2017-05-03T20:47:59.758Z,2.10
2017-05-03T20:50:29.112Z,1.96
2017-05-03T20:52:58.447Z,1.92
2017-05-03T20:55:28.656Z,2.36
2017-05-03T20:57:58.008Z,2.20
2017-05-03T21:00:27.349Z,2.54
2017-05-03T21:02:56.689Z,1.92
2017-05-03T21:05:26.034Z,2.50
2017-05-03T21:07:55.455Z,1.94
2017-05-03T21:10:24.821Z,2.36
2017-05-03T21:12:54.161Z,1.88
2017-05-03T21:15:23.499Z,2.00
2017-05-03T21:17:52.834Z,2.02
2017-05-03T21:20:22.388Z,2.22
2017-05-03T21:22:51.722Z,2.20
2017-05-03T21:25:21.070Z,1.98
2017-05-03T21:27:51.073Z,2.06
2017-05-03T21:30:19.989Z,2.08
2017-05-03T21:32:49.991Z,1.98
2017-05-03T21:35:18.661Z,2.10
2017-05-03T21:37:47.991Z,1.90
2017-05-03T21:40:17.330Z,2.16
2017-05-03T21:42:46.747Z,2.24
2017-05-03T21:45:16.088Z,2.26
2017-05-03T21:47:45.430Z,1.90
2017-05-03T21:50:14.766Z,1.98
2017-05-03T21:52:44.113Z,2.26
2017-05-03T21:55:13.538Z,2.42
2017-05-03T21:57:42.899Z,1.94
2017-05-03T22:00:12.261Z,2.16
2017-05-03T22:02:41.593Z,2.42
2017-05-03T22:05:10.940Z,2.46
2017-05-03T22:07:40.340Z,2.08
2017-05-03T22:10:09.672Z,2.24
2017-05-03T22:12:39.098Z,1.86
2017-05-03T22:15:08.443Z,2.20
2017-05-03T22:17:37.785Z,1.84
2017-05-03T22:20:07.124Z,2.20
2017-05-03T22:22:36.463Z,2.42
2017-05-03T22:25:05.876Z,2.00
2017-05-03T22:27:35.973Z,1.88
2017-05-03T22:30:04.707Z,1.92
2017-05-03T22:32:34.059Z,2.44
2017-05-03T22:35:04.269Z,2.22
2017-05-03T22:37:33.612Z,2.22
2017-05-03T22:40:03.761Z,2.66
2017-05-03T22:42:33.095Z,2.22
2017-05-03T22:45:02.427Z,2.28
2017-05-03T22:47:31.845Z,2.12
2017-05-03T22:50:01.254Z,2.30
2017-05-03T22:52:30.594Z,2.36
2017-05-03T22:54:59.926Z,2.22
2017-05-03T22:57:30.054Z,2.26
2017-05-03T22:59:59.394Z,2.16
2017-05-03T23:02:28.837Z,2.48
2017-05-03T23:04:58.162Z,1.84
2017-05-03T23:07:28.478Z,2.12
2017-05-03T23:09:57.814Z,1.66
2017-05-03T23:12:27.151Z,2.00
2017-05-03T23:14:56.499Z,2.16
2017-05-03T23:17:25.841Z,1.86
2017-05-03T23:19:55.204Z,2.02
2017-05-03T23:22:25.209Z,2.22
2017-05-03T23:24:53.969Z,2.22
2017-05-03T23:27:23.303Z,1.76
2017-05-03T23:29:52.636Z,1.76
2017-05-03T23:32:21.966Z,1.78
2017-05-03T23:34:51.302Z,2.20
2017-05-03T23:37:20.722Z,1.90
2017-05-03T23:39:50.062Z,1.92
2017-05-03T23:42:20.110Z,2.08
2017-05-03T23:44:48.772Z,2.30
2017-05-03T23:47:18.131Z,2.22
2017-05-03T23:49:47.553Z,1.68
2017-05-03T23:52:16.899Z,1.74
2017-05-03T23:54:46.235Z,1.96
2017-05-03T23:57:15.565Z,1.78
2017-05-03T23:59:44.894Z,1.90
